Latest Coastal Weather Observations for Northeast Island

IDD60701

Issued at 12:45 pm CST Monday 21 April 2014 (issued every 10 minutes, with the page automatically refreshed every 10 minutes)

About coastal observations | Map of coastal stations | Coastal observations for NT | Marine services | Other Formats
Station Details ID: 200782 Name: NORTH EAST ISLAND Lat: -13.64 Lon: 136.94 Height: 17.4 m
Data from the previous 72 hours. | See also: Recent months for locations in Northern Territory
Date/Time
CST
Temp

°C
Wind Pressure Rain
since 9am
mm
Weather Cloud Vis
km
Sea
Height
m
Swell
Dir
 
Speed
knots
Gust
knots
hPa Trend Height
m
Period
s
Dir
21/12:30pm 31.9 E 13 20 1010.6 - 0.0 - - - - - - -
21/12:00pm 31.4 E 12 17 1010.9 - 0.0 - - - - - - -
21/11:30am 31.5 E 13 21 1011.3 - 0.0 - - - - - - -
21/11:00am 31.4 E 13 19 1011.6 - 0.0 - - - - - - -
21/10:30am 31.6 E 14 21 1011.9 - 0.0 - - - - - - -
21/10:00am 30.7 E 13 18 1011.9 - 0.0 - - - - - - -
21/09:30am 29.8 E 15 21 1011.8 - 0.0 - - - - - - -
21/09:00am 29.5 E 15 22 1011.5 - 0.0 - - - - - - -
21/08:30am 29.4 E 16 23 1011.2 - 0.0 - - - - - - -
21/08:00am 29.3 E 13 21 1011.0 - 0.0 - - - - - - -
21/07:30am 29.1 E 15 23 1010.7 - 0.0 - - - - - - -
21/07:00am 28.7 E 15 22 1010.4 - 0.0 - - - - - - -
21/06:30am 28.6 E 13 22 1010.1 - 0.0 - - - - - - -
21/06:00am 28.5 E 13 20 1009.6 - 0.0 - - - - - - -
21/05:30am 28.5 E 12 19 1009.6 - 0.0 - - - - - - -
21/05:00am 28.5 E 11 17 1009.6 - 0.0 - - - - - - -
21/04:30am 28.5 E 11 17 1009.6 - 0.0 - - - - - - -
21/04:00am 28.5 E 11 17 1009.7 - 0.0 - - - - - - -
21/03:30am 28.4 ESE 11 17 1009.5 - 0.0 - - - - - - -
21/03:00am 28.5 ESE 12 19 1009.3 - 0.0 - - - - - - -
21/02:30am 28.4 ESE 11 17 1009.5 - 0.0 - - - - - - -
21/02:00am 28.7 ESE 14 20 1009.7 - 0.0 - - - - - - -
21/01:30am 28.6 ESE 14 18 1010.2 - 0.0 - - - - - - -
21/01:00am 28.6 ESE 14 19 1010.5 - 0.0 - - - - - - -
21/12:30am 28.5 ESE 13 18 1010.7 - 0.0 - - - - - - -
21/12:00am 28.5 ESE 13 18 1010.9 - 0.0 - - - - - - -
 
Date/Time
CST
Temp

°C
Wind Pressure Rain
since 9am
mm
Weather Cloud Vis
km
Sea
Height
m
Swell
Dir
 
Speed
knots
Gust
knots
hPa Trend Height
m
Period
s
Dir
20/11:30pm 28.6 ESE 13 18 1011.0 - 0.0 - - - - - - -
20/11:00pm 28.3 ESE 12 18 1011.0 - 0.0 - - - - - - -
20/10:30pm 28.3 ESE 13 19 1011.4 - 0.0 - - - - - - -
20/10:00pm 28.3 ESE 12 16 1011.7 - 0.0 - - - - - - -
20/09:30pm 28.5 ESE 11 16 1011.9 - 0.0 - - - - - - -
20/09:00pm 28.4 E 10 15 1011.9 - 0.0 - - - - - - -
20/08:30pm 28.5 ESE 10 15 1011.8 - 0.0 - - - - - - -
20/08:00pm 28.7 ESE 13 19 1011.5 - 0.0 - - - - - - -
20/07:30pm 28.7 E 10 16 1011.4 - 0.0 - - - - - - -
20/07:00pm 28.6 E 9 14 1011.0 - 0.0 - - - - - - -
20/06:30pm 28.8 E 11 17 1010.5 - 0.0 - - - - - - -
20/06:00pm 28.9 E 10 18 1010.0 - 0.0 - - - - - - -
20/05:30pm 29.1 E 11 17 1010.0 - 0.0 - - - - - - -
20/05:00pm 29.7 E 10 15 1009.7 - 0.0 - - - - - - -
20/04:30pm 30.1 E 11 16 1009.3 - 0.0 - - - - - - -
20/04:00pm 30.6 E 11 17 1009.2 - 0.0 - - - - - - -
20/03:30pm 30.8 E 13 18 1009.0 - 0.0 - - - - - - -
20/03:00pm 30.9 E 13 19 1008.8 - 0.0 - - - - - - -
20/02:30pm 31.3 E 13 19 1009.0 - 0.0 - - - - - - -
20/02:00pm 31.5 E 14 20 1009.3 - 0.0 - - - - - - -
20/01:30pm 31.5 E 14 21 1009.7 - 0.0 - - - - - - -
20/01:00pm 31.5 E 14 19 1010.0 - 0.0 - - - - - - -
20/12:30pm 31.6 E 14 20 1010.2 - 0.0 - - - - - - -
20/12:00pm 31.8 E 14 22 1010.4 - 0.0 - - - - - - -
20/11:30am 31.0 E 14 21 1010.7 - 0.0 - - - - - - -
20/11:00am 30.1 ESE 11 18 1011.1 - 0.0 - - - - - - -
20/10:30am 30.8 E 15 21 1011.2 - 0.0 - - - - - - -
20/10:00am 31.2 E 14 21 1011.3 - 0.0 - - - - - - -
20/09:30am 30.6 E 12 16 1011.2 - 0.0 - - - - - - -
20/09:00am 30.0 E 12 17 1010.9 - 1.6 - - - - - - -
20/08:30am 29.1 E 13 19 1010.8 - 1.6 - - - - - - -
20/08:00am 28.2 E 10 14 1010.8 - 1.6 - - - - - - -
20/07:30am 26.1 E 14 21 1010.5 - 1.6 - - - - - - -
20/07:00am 28.6 E 10 15 1010.1 - 0.0 - - - - - - -
20/06:30am 28.5 E 11 19 1009.8 - 0.0 - - - - - - -
20/06:00am 28.5 E 10 14 1009.4 - 0.0 - - - - - - -
20/05:30am 28.4 E 10 16 1009.2 - 0.0 - - - - - - -
20/05:00am 28.4 ESE 10 16 1009.1 - 0.0 - - - - - - -
20/04:30am 28.4 ESE 13 19 1009.0 - 0.0 - - - - - - -
20/04:00am 28.5 ESE 11 17 1008.9 - 0.0 - - - - - - -
20/03:30am 28.3 ESE 12 17 1009.0 - 0.0 - - - - - - -
20/03:00am 28.4 ESE 12 16 1009.0 - 0.0 - - - - - - -
20/02:30am 28.3 ESE 12 17 1009.2 - 0.0 - - - - - - -
20/02:00am 28.4 ESE 12 19 1009.4 - 0.0 - - - - - - -
20/01:30am 28.4 ESE 12 19 1009.6 - 0.0 - - - - - - -
20/01:00am 28.5 ESE 12 17 1010.0 - 0.0 - - - - - - -
20/12:30am 28.3 ESE 12 16 1010.3 - 0.0 - - - - - - -
20/12:00am 28.2 ESE 9 13 1010.6 - 0.0 - - - - - - -
 
Date/Time
CST
Temp

°C
Wind Pressure Rain
since 9am
mm
Weather Cloud Vis
km
Sea
Height
m
Swell
Dir
 
Speed
knots
Gust
knots
hPa Trend Height
m
Period
s
Dir
19/11:30pm 28.4 E 9 13 1011.0 - 0.0 - - - - - - -
19/11:00pm 28.3 E 10 14 1011.2 - 0.0 - - - - - - -
19/10:30pm 28.4 E 8 13 1011.3 - 0.0 - - - - - - -
19/10:00pm 28.4 E 8 12 1011.5 - 0.0 - - - - - - -
19/09:30pm 28.5 E 9 13 1011.6 - 0.0 - - - - - - -
19/09:00pm 28.5 E 9 12 1011.5 - 0.0 - - - - - - -
19/08:30pm 28.6 E 8 13 1011.5 - 0.0 - - - - - - -
19/08:00pm 28.6 E 9 13 1011.3 - 0.0 - - - - - - -
19/07:30pm 28.7 E 9 14 1011.0 - 0.0 - - - - - - -
19/07:00pm 28.7 E 9 14 1010.7 - 0.0 - - - - - - -
19/06:30pm 28.7 ESE 10 15 1010.6 - 0.0 - - - - - - -
19/06:00pm 28.8 E 11 17 1010.2 - 0.0 - - - - - - -
19/05:30pm 29.1 E 12 19 1009.9 - 0.0 - - - - - - -
19/05:00pm 29.9 E 14 21 1009.7 - 0.0 - - - - - - -
19/04:30pm 30.0 E 14 19 1009.3 - 0.0 - - - - - - -
19/04:00pm 29.9 E 14 21 1009.0 - 0.0 - - - - - - -
19/03:30pm 30.7 E 13 19 1009.0 - 0.0 - - - - - - -
19/03:00pm 30.7 E 13 19 1008.6 - 0.0 - - - - - - -
19/02:30pm 31.3 E 13 19 1009.0 - 0.0 - - - - - - -
19/02:00pm 31.1 E 14 19 1009.2 - 0.0 - - - - - - -
19/01:30pm 30.6 E 13 19 1009.7 - 0.0 - - - - - - -
19/01:00pm 31.0 E 13 17 1010.2 - 0.0 - - - - - - -
19/12:30pm 30.7 E 13 19 1010.5 - 0.0 - - - - - - -
19/12:00pm 31.2 E 13 19 1010.7 - 0.0 - - - - - - -
19/11:30am 31.1 E 14 19 1011.0 - 0.0 - - - - - - -
19/11:00am 31.1 E 13 21 1011.3 - 0.0 - - - - - - -
19/10:30am 29.9 E 15 21 1011.5 - 0.0 - - - - - - -
19/10:00am 29.6 E 12 19 1011.8 - 0.0 - - - - - - -
19/09:30am 31.0 E 12 18 1011.8 - 0.0 - - - - - - -
19/09:00am 29.8 E 10 15 1011.6 - 10.8 - - - - - - -
19/08:30am 30.1 E 11 17 1011.6 - 10.8 - - - - - - -
19/08:00am 29.0 E 12 17 1011.4 - 10.8 - - - - - - -
19/07:30am 28.7 E 10 17 1011.2 - 10.8 - - - - - - -
19/07:00am 28.4 E 10 15 1011.0 - 10.8 - - - - - - -
19/06:30am 28.4 E 9 14 1010.6 - 10.8 - - - - - - -
19/06:00am 28.1 ESE 9 14 1010.2 - 10.8 - - - - - - -
19/05:30am 28.0 E 9 15 1010.2 - 10.8 - - - - - - -
19/05:00am 28.1 E 8 14 1010.1 - 10.8 - - - - - - -
19/04:30am 28.0 ESE 10 14 1010.1 - 10.8 - - - - - - -
19/04:00am 28.0 E 8 12 1010.1 - 10.8 - - - - - - -
19/03:30am 28.1 ESE 8 13 1010.1 - 10.8 - - - - - - -
19/03:00am 28.1 ESE 10 15 1010.2 - 10.8 - - - - - - -
19/02:30am 28.2 ESE 10 15 1010.5 - 10.8 - - - - - - -
19/02:00am 28.3 ESE 11 15 1010.6 - 10.8 - - - - - - -
19/01:30am 28.6 ESE 12 16 1010.9 - 10.8 - - - - - - -
19/01:00am 28.6 ESE 10 13 1011.3 - 10.8 - - - - - - -
19/12:30am 28.6 ESE 10 16 1011.9 - 10.8 - - - - - - -
19/12:00am 28.8 ESE 8 12 1012.3 - 10.8 - - - - - - -
 
Date/Time
CST
Temp

°C
Wind Pressure Rain
since 9am
mm
Weather Cloud Vis
km
Sea
Height
m
Swell
Dir
 
Speed
knots
Gust
knots
hPa Trend Height
m
Period
s
Dir
18/11:30pm 28.6 ESE 6 12 1012.9 - 10.8 - - - - - - -
18/11:00pm 28.5 ESE 6 11 1013.1 - 10.8 - - - - - - -
18/10:30pm 28.5 SE 6 9 1013.0 - 10.8 - - - - - - -
18/10:00pm 28.3 ESE 6 10 1013.0 - 10.8 - - - - - - -
18/09:30pm 28.4 ESE 6 11 1013.0 - 10.8 - - - - - - -
18/09:00pm 28.4 SE 5 9 1012.9 - 10.8 - - - - - - -
18/08:30pm 28.5 ESE 5 8 1013.0 - 10.8 - - - - - - -
18/08:00pm 28.2 ESE 7 9 1012.8 - 10.8 - - - - - - -
18/07:30pm 28.0 ESE 5 8 1012.4 - 10.8 - - - - - - -
18/07:00pm 27.9 SE 4 6 1012.1 - 10.8 - - - - - - -
18/06:30pm 27.8 ESE 4 7 1011.6 - 10.8 - - - - - - -
18/06:00pm 27.7 SE 4 7 1011.1 - 10.8 - - - - - - -
18/05:30pm 27.6 ESE 5 9 1011.0 - 10.8 - - - - - - -
18/05:00pm 27.8 ESE 8 11 1010.9 - 10.8 - - - - - - -
18/04:30pm 27.9 ESE 8 13 1010.7 - 10.8 - - - - - - -
18/04:00pm 27.7 ESE 6 9 1010.4 - 10.8 - - - - - - -
18/03:30pm 27.9 E 6 10 1010.5 - 10.8 - - - - - - -
18/03:00pm 28.0 E 6 10 1010.6 - 10.8 - - - - - - -
18/02:30pm 28.0 E 5 8 1010.4 - 10.8 - - - - - - -
18/02:00pm 27.1 ENE 4 7 1010.6 - 10.8 - - - - - - -
18/01:30pm 26.8 E 5 7 1010.7 - 10.8 - - - - - - -
18/01:00pm 26.2 E 6 9 1011.0 - 10.8 - - - - - - -

Other Formats:

Comma delimited format used in spreadsheet applications
http://www.bom.gov.au/fwo/IDD60701/IDD60701.94151.axf

JavaScript Object Notation format (JSON) in row-major order
http://www.bom.gov.au/fwo/IDD60701/IDD60701.94151.json